sensor_id;sensor_type;location;lat;lon;timestamp;temperature;humidity
2024;DHT22;1016;48.770;9.154;2023-02-18T00:00:08;13.20;99.90
2024;DHT22;1016;48.770;9.154;2023-02-18T00:02:34;13.20;99.90
2024;DHT22;1016;48.770;9.154;2023-02-18T00:05:00;13.20;99.90
2024;DHT22;1016;48.770;9.154;2023-02-18T00:07:25;13.10;99.90
2024;DHT22;1016;48.770;9.154;2023-02-18T00:09:51;13.10;99.90
2024;DHT22;1016;48.770;9.154;2023-02-18T00:12:16;13.10;99.90
2024;DHT22;1016;48.770;9.154;2023-02-18T00:14:42;13.10;99.90
2024;DHT22;1016;48.770;9.154;2023-02-18T00:17:07;13.00;99.90
2024;DHT22;1016;48.770;9.154;2023-02-18T00:19:33;13.10;99.90
2024;DHT22;1016;48.770;9.154;2023-02-18T00:21:58;13.00;99.90
2024;DHT22;1016;48.770;9.154;2023-02-18T00:24:24;13.00;99.90
2024;DHT22;1016;48.770;9.154;2023-02-18T00:26:51;13.00;99.90
2024;DHT22;1016;48.770;9.154;2023-02-18T00:29:17;13.00;99.90
2024;DHT22;1016;48.770;9.154;2023-02-18T00:31:43;13.00;99.90
2024;DHT22;1016;48.770;9.154;2023-02-18T00:34:10;13.00;99.90
2024;DHT22;1016;48.770;9.154;2023-02-18T00:36:36;12.90;99.90
2024;DHT22;1016;48.770;9.154;2023-02-18T00:39:04;12.90;99.90
2024;DHT22;1016;48.770;9.154;2023-02-18T00:41:31;12.90;99.90
2024;DHT22;1016;48.770;9.154;2023-02-18T00:43:56;13.00;99.90
2024;DHT22;1016;48.770;9.154;2023-02-18T00:46:23;13.00;99.90
2024;DHT22;1016;48.770;9.154;2023-02-18T00:48:49;13.00;99.90
2024;DHT22;1016;48.770;9.154;2023-02-18T00:51:15;12.90;99.90
2024;DHT22;1016;48.770;9.154;2023-02-18T00:53:40;12.90;99.90
2024;DHT22;1016;48.770;9.154;2023-02-18T00:56:06;12.90;99.90
2024;DHT22;1016;48.770;9.154;2023-02-18T00:58:33;13.00;99.90
2024;DHT22;1016;48.770;9.154;2023-02-18T01:00:59;13.00;99.90
2024;DHT22;1016;48.770;9.154;2023-02-18T01:03:25;13.00;99.90
2024;DHT22;1016;48.770;9.154;2023-02-18T01:05:51;13.00;99.90
2024;DHT22;1016;48.770;9.154;2023-02-18T01:08:19;13.00;99.90
2024;DHT22;1016;48.770;9.154;2023-02-18T01:10:47;12.90;99.90
2024;DHT22;1016;48.770;9.154;2023-02-18T01:13:13;12.90;99.90
2024;DHT22;1016;48.770;9.154;2023-02-18T01:15:40;13.00;99.90
2024;DHT22;1016;48.770;9.154;2023-02-18T01:18:06;13.10;99.90
2024;DHT22;1016;48.770;9.154;2023-02-18T01:20:32;12.90;99.90
2024;DHT22;1016;48.770;9.154;2023-02-18T01:22:58;12.90;99.90
2024;DHT22;1016;48.770;9.154;2023-02-18T01:25:24;12.90;99.90
2024;DHT22;1016;48.770;9.154;2023-02-18T01:27:49;12.90;99.90
2024;DHT22;1016;48.770;9.154;2023-02-18T01:30:16;12.90;99.90
2024;DHT22;1016;48.770;9.154;2023-02-18T01:32:42;12.90;99.90
2024;DHT22;1016;48.770;9.154;2023-02-18T01:35:12;12.90;99.90
2024;DHT22;1016;48.770;9.154;2023-02-18T01:37:38;12.80;99.90
2024;DHT22;1016;48.770;9.154;2023-02-18T01:40:04;12.80;99.90
2024;DHT22;1016;48.770;9.154;2023-02-18T01:42:30;12.80;99.90
2024;DHT22;1016;48.770;9.154;2023-02-18T01:48:05;12.80;99.90
2024;DHT22;1016;48.770;9.154;2023-02-18T01:50:33;12.80;99.90
2024;DHT22;1016;48.770;9.154;2023-02-18T01:53:00;12.70;99.90
2024;DHT22;1016;48.770;9.154;2023-02-18T01:55:27;12.70;99.90
2024;DHT22;1016;48.770;9.154;2023-02-18T01:57:53;12.80;99.90
2024;DHT22;1016;48.770;9.154;2023-02-18T02:00:19;12.60;99.90
2024;DHT22;1016;48.770;9.154;2023-02-18T02:02:49;12.60;99.90
2024;DHT22;1016;48.770;9.154;2023-02-18T02:05:16;12.70;99.90
2024;DHT22;1016;48.770;9.154;2023-02-18T02:07:44;12.60;99.90
2024;DHT22;1016;48.770;9.154;2023-02-18T02:10:12;12.60;99.90
2024;DHT22;1016;48.770;9.154;2023-02-18T02:15:46;12.60;99.90
2024;DHT22;1016;48.770;9.154;2023-02-18T02:24:28;12.60;99.90
2024;DHT22;1016;48.770;9.154;2023-02-18T02:32:31;12.50;99.90
2024;DHT22;1016;48.770;9.154;2023-02-18T02:35:22;12.60;99.90
2024;DHT22;1016;48.770;9.154;2023-02-18T02:38:23;12.60;99.90
2024;DHT22;1016;48.770;9.154;2023-02-18T02:41:06;12.60;99.90
2024;DHT22;1016;48.770;9.154;2023-02-18T02:43:50;12.60;99.90
2024;DHT22;1016;48.770;9.154;2023-02-18T02:46:27;12.60;99.90
2024;DHT22;1016;48.770;9.154;2023-02-18T02:51:45;12.70;99.90
2024;DHT22;1016;48.770;9.154;2023-02-18T02:54:21;12.60;99.90
2024;DHT22;1016;48.770;9.154;2023-02-18T02:56:47;12.60;99.90
2024;DHT22;1016;48.770;9.154;2023-02-18T02:59:18;12.60;99.90
2024;DHT22;1016;48.770;9.154;2023-02-18T03:12:18;12.60;99.90
2024;DHT22;1016;48.770;9.154;2023-02-18T03:17:57;12.60;99.90
2024;DHT22;1016;48.770;9.154;2023-02-18T03:20:28;12.60;99.90
2024;DHT22;1016;48.770;9.154;2023-02-18T03:22:57;12.50;99.90
2024;DHT22;1016;48.770;9.154;2023-02-18T03:25:24;12.60;99.90
2024;DHT22;1016;48.770;9.154;2023-02-18T03:28:12;12.70;99.90
2024;DHT22;1016;48.770;9.154;2023-02-18T03:30:47;12.60;99.90
2024;DHT22;1016;48.770;9.154;2023-02-18T03:33:17;12.60;99.90
2024;DHT22;1016;48.770;9.154;2023-02-18T03:35:46;12.50;99.90
2024;DHT22;1016;48.770;9.154;2023-02-18T03:38:23;12.50;99.90
2024;DHT22;1016;48.770;9.154;2023-02-18T03:40:50;12.50;99.90
2024;DHT22;1016;48.770;9.154;2023-02-18T03:43:16;12.60;99.90
2024;DHT22;1016;48.770;9.154;2023-02-18T03:45:42;12.50;99.90
2024;DHT22;1016;48.770;9.154;2023-02-18T03:48:08;12.50;99.90
2024;DHT22;1016;48.770;9.154;2023-02-18T03:50:33;12.50;99.90
2024;DHT22;1016;48.770;9.154;2023-02-18T03:52:59;12.40;99.90
2024;DHT22;1016;48.770;9.154;2023-02-18T03:55:24;12.30;99.90
2024;DHT22;1016;48.770;9.154;2023-02-18T03:57:50;12.30;99.90
2024;DHT22;1016;48.770;9.154;2023-02-18T04:00:16;12.30;99.90
2024;DHT22;1016;48.770;9.154;2023-02-18T04:02:42;12.30;99.90
2024;DHT22;1016;48.770;9.154;2023-02-18T04:05:08;12.20;99.90
2024;DHT22;1016;48.770;9.154;2023-02-18T04:07:34;12.20;99.90
2024;DHT22;1016;48.770;9.154;2023-02-18T04:09:59;12.10;99.90
2024;DHT22;1016;48.770;9.154;2023-02-18T04:12:25;12.10;99.90
2024;DHT22;1016;48.770;9.154;2023-02-18T04:14:50;12.10;99.90
2024;DHT22;1016;48.770;9.154;2023-02-18T04:17:16;12.10;99.90
2024;DHT22;1016;48.770;9.154;2023-02-18T04:19:41;12.20;99.90
2024;DHT22;1016;48.770;9.154;2023-02-18T04:22:07;12.30;99.90
2024;DHT22;1016;48.770;9.154;2023-02-18T04:24:32;12.20;99.90
2024;DHT22;1016;48.770;9.154;2023-02-18T04:26:58;12.20;99.90
2024;DHT22;1016;48.770;9.154;2023-02-18T04:29:23;12.20;99.90
2024;DHT22;1016;48.770;9.154;2023-02-18T04:31:49;12.20;99.90
2024;DHT22;1016;48.770;9.154;2023-02-18T04:34:14;12.20;99.90
2024;DHT22;1016;48.770;9.154;2023-02-18T04:36:40;12.20;99.90
2024;DHT22;1016;48.770;9.154;2023-02-18T04:39:05;12.20;99.90
2024;DHT22;1016;48.770;9.154;2023-02-18T04:41:31;12.20;99.90
2024;DHT22;1016;48.770;9.154;2023-02-18T04:43:56;12.20;99.90
2024;DHT22;1016;48.770;9.154;2023-02-18T04:46:23;12.20;99.90
2024;DHT22;1016;48.770;9.154;2023-02-18T04:48:49;12.10;99.90
2024;DHT22;1016;48.770;9.154;2023-02-18T04:51:14;12.10;99.90
2024;DHT22;1016;48.770;9.154;2023-02-18T04:53:40;12.00;99.90
2024;DHT22;1016;48.770;9.154;2023-02-18T04:56:06;12.00;99.90
2024;DHT22;1016;48.770;9.154;2023-02-18T04:58:31;12.00;99.90
2024;DHT22;1016;48.770;9.154;2023-02-18T05:01:01;11.90;99.90
2024;DHT22;1016;48.770;9.154;2023-02-18T05:03:28;11.90;99.90
2024;DHT22;1016;48.770;9.154;2023-02-18T05:05:54;11.80;99.90
2024;DHT22;1016;48.770;9.154;2023-02-18T05:08:20;11.80;99.90
2024;DHT22;1016;48.770;9.154;2023-02-18T05:10:45;11.80;99.90
2024;DHT22;1016;48.770;9.154;2023-02-18T05:13:11;11.70;99.90
2024;DHT22;1016;48.770;9.154;2023-02-18T05:15:36;11.70;99.90
2024;DHT22;1016;48.770;9.154;2023-02-18T05:18:02;11.70;99.90
2024;DHT22;1016;48.770;9.154;2023-02-18T05:20:27;11.70;99.90
2024;DHT22;1016;48.770;9.154;2023-02-18T05:22:53;11.60;99.90
2024;DHT22;1016;48.770;9.154;2023-02-18T05:25:18;11.50;99.90
2024;DHT22;1016;48.770;9.154;2023-02-18T05:27:44;11.50;99.90
2024;DHT22;1016;48.770;9.154;2023-02-18T05:30:10;11.40;99.90
2024;DHT22;1016;48.770;9.154;2023-02-18T05:32:35;11.30;99.90
2024;DHT22;1016;48.770;9.154;2023-02-18T05:35:01;11.30;99.90
2024;DHT22;1016;48.770;9.154;2023-02-18T05:37:26;11.20;99.90
2024;DHT22;1016;48.770;9.154;2023-02-18T05:39:52;11.20;99.90
2024;DHT22;1016;48.770;9.154;2023-02-18T05:42:17;11.20;99.90
2024;DHT22;1016;48.770;9.154;2023-02-18T05:44:43;11.20;99.90
2024;DHT22;1016;48.770;9.154;2023-02-18T05:47:10;11.00;99.90
2024;DHT22;1016;48.770;9.154;2023-02-18T05:49:39;11.10;99.90
2024;DHT22;1016;48.770;9.154;2023-02-18T05:52:05;11.10;99.90
2024;DHT22;1016;48.770;9.154;2023-02-18T05:54:31;11.20;99.90
2024;DHT22;1016;48.770;9.154;2023-02-18T05:56:57;11.10;99.90
2024;DHT22;1016;48.770;9.154;2023-02-18T05:59:22;11.20;99.90
2024;DHT22;1016;48.770;9.154;2023-02-18T06:01:48;11.20;99.90
2024;DHT22;1016;48.770;9.154;2023-02-18T06:04:14;11.20;99.90
2024;DHT22;1016;48.770;9.154;2023-02-18T06:06:40;11.20;99.90
2024;DHT22;1016;48.770;9.154;2023-02-18T06:09:06;11.20;99.90
2024;DHT22;1016;48.770;9.154;2023-02-18T06:11:32;11.20;99.90
2024;DHT22;1016;48.770;9.154;2023-02-18T06:13:58;11.20;99.90
2024;DHT22;1016;48.770;9.154;2023-02-18T06:16:24;11.20;99.90
2024;DHT22;1016;48.770;9.154;2023-02-18T06:18:50;11.20;99.90
2024;DHT22;1016;48.770;9.154;2023-02-18T06:21:15;11.20;99.90
2024;DHT22;1016;48.770;9.154;2023-02-18T06:23:41;11.20;99.90
2024;DHT22;1016;48.770;9.154;2023-02-18T06:26:06;11.20;99.90
2024;DHT22;1016;48.770;9.154;2023-02-18T06:28:32;11.20;99.90
2024;DHT22;1016;48.770;9.154;2023-02-18T06:30:57;11.20;99.90
2024;DHT22;1016;48.770;9.154;2023-02-18T06:33:23;11.10;99.90
2024;DHT22;1016;48.770;9.154;2023-02-18T06:35:57;11.10;99.90
2024;DHT22;1016;48.770;9.154;2023-02-18T06:38:23;11.10;99.90
2024;DHT22;1016;48.770;9.154;2023-02-18T06:40:49;11.10;99.90
2024;DHT22;1016;48.770;9.154;2023-02-18T06:43:15;11.10;99.90
2024;DHT22;1016;48.770;9.154;2023-02-18T06:45:41;11.10;99.90
2024;DHT22;1016;48.770;9.154;2023-02-18T06:48:06;11.10;99.90
2024;DHT22;1016;48.770;9.154;2023-02-18T06:50:32;11.20;99.90
2024;DHT22;1016;48.770;9.154;2023-02-18T06:52:57;11.20;99.90
2024;DHT22;1016;48.770;9.154;2023-02-18T06:55:24;11.20;99.90
2024;DHT22;1016;48.770;9.154;2023-02-18T06:57:49;11.20;99.90
2024;DHT22;1016;48.770;9.154;2023-02-18T07:00:15;11.30;99.90
2024;DHT22;1016;48.770;9.154;2023-02-18T07:02:41;11.40;99.90
2024;DHT22;1016;48.770;9.154;2023-02-18T07:05:06;11.40;99.90
2024;DHT22;1016;48.770;9.154;2023-02-18T07:07:32;11.60;99.90
2024;DHT22;1016;48.770;9.154;2023-02-18T07:09:58;11.70;99.90
2024;DHT22;1016;48.770;9.154;2023-02-18T07:12:23;11.70;99.90
2024;DHT22;1016;48.770;9.154;2023-02-18T07:14:49;11.70;99.90
2024;DHT22;1016;48.770;9.154;2023-02-18T07:17:14;11.80;99.90
2024;DHT22;1016;48.770;9.154;2023-02-18T07:19:40;11.80;99.90
2024;DHT22;1016;48.770;9.154;2023-02-18T07:22:05;11.80;99.90
2024;DHT22;1016;48.770;9.154;2023-02-18T07:24:31;11.90;99.90
2024;DHT22;1016;48.770;9.154;2023-02-18T07:26:56;12.00;99.90
2024;DHT22;1016;48.770;9.154;2023-02-18T07:29:22;12.10;99.90
2024;DHT22;1016;48.770;9.154;2023-02-18T07:31:47;12.10;99.90
2024;DHT22;1016;48.770;9.154;2023-02-18T07:34:13;12.10;99.90
2024;DHT22;1016;48.770;9.154;2023-02-18T07:36:38;12.20;99.90
2024;DHT22;1016;48.770;9.154;2023-02-18T07:39:04;12.20;99.90
2024;DHT22;1016;48.770;9.154;2023-02-18T07:41:29;12.30;99.90
2024;DHT22;1016;48.770;9.154;2023-02-18T07:43:55;12.30;99.90
2024;DHT22;1016;48.770;9.154;2023-02-18T07:46:21;12.30;99.90
2024;DHT22;1016;48.770;9.154;2023-02-18T07:48:46;12.50;99.90
2024;DHT22;1016;48.770;9.154;2023-02-18T07:51:12;12.40;99.90
2024;DHT22;1016;48.770;9.154;2023-02-18T07:53:38;12.40;99.90
2024;DHT22;1016;48.770;9.154;2023-02-18T07:56:05;12.50;99.90
2024;DHT22;1016;48.770;9.154;2023-02-18T07:58:33;12.50;99.90
2024;DHT22;1016;48.770;9.154;2023-02-18T08:01:13;12.50;99.90
2024;DHT22;1016;48.770;9.154;2023-02-18T08:03:39;12.50;99.90
2024;DHT22;1016;48.770;9.154;2023-02-18T08:06:05;12.60;99.90
2024;DHT22;1016;48.770;9.154;2023-02-18T08:08:31;12.70;99.90
2024;DHT22;1016;48.770;9.154;2023-02-18T08:10:59;12.70;99.90
2024;DHT22;1016;48.770;9.154;2023-02-18T08:13:27;12.70;99.90
2024;DHT22;1016;48.770;9.154;2023-02-18T08:15:56;12.70;99.90
2024;DHT22;1016;48.770;9.154;2023-02-18T08:18:23;12.80;99.90
2024;DHT22;1016;48.770;9.154;2023-02-18T08:20:49;12.70;99.90
2024;DHT22;1016;48.770;9.154;2023-02-18T08:23:19;12.70;99.90
2024;DHT22;1016;48.770;9.154;2023-02-18T08:25:46;12.70;99.90
2024;DHT22;1016;48.770;9.154;2023-02-18T08:28:12;12.70;99.90
2024;DHT22;1016;48.770;9.154;2023-02-18T08:30:37;12.80;99.90
2024;DHT22;1016;48.770;9.154;2023-02-18T08:33:03;12.80;99.90
2024;DHT22;1016;48.770;9.154;2023-02-18T08:35:28;12.80;99.90
2024;DHT22;1016;48.770;9.154;2023-02-18T08:37:54;12.80;99.90
2024;DHT22;1016;48.770;9.154;2023-02-18T08:40:20;12.90;99.90
2024;DHT22;1016;48.770;9.154;2023-02-18T08:42:45;13.00;99.90
2024;DHT22;1016;48.770;9.154;2023-02-18T08:45:11;13.00;99.90
2024;DHT22;1016;48.770;9.154;2023-02-18T08:47:36;13.00;99.90
2024;DHT22;1016;48.770;9.154;2023-02-18T08:50:03;13.00;99.90
2024;DHT22;1016;48.770;9.154;2023-02-18T08:52:28;13.20;99.90
2024;DHT22;1016;48.770;9.154;2023-02-18T08:54:53;13.20;99.90
2024;DHT22;1016;48.770;9.154;2023-02-18T08:57:19;13.20;99.90
2024;DHT22;1016;48.770;9.154;2023-02-18T08:59:44;13.20;99.90
2024;DHT22;1016;48.770;9.154;2023-02-18T09:02:14;13.20;99.90
2024;DHT22;1016;48.770;9.154;2023-02-18T09:04:39;13.30;99.90
2024;DHT22;1016;48.770;9.154;2023-02-18T09:07:05;13.40;99.90
2024;DHT22;1016;48.770;9.154;2023-02-18T09:09:30;13.40;99.90
2024;DHT22;1016;48.770;9.154;2023-02-18T09:11:56;14.20;99.90
2024;DHT22;1016;48.770;9.154;2023-02-18T09:14:22;13.50;99.90
2024;DHT22;1016;48.770;9.154;2023-02-18T09:16:48;13.60;99.90
2024;DHT22;1016;48.770;9.154;2023-02-18T09:19:15;13.60;99.90
2024;DHT22;1016;48.770;9.154;2023-02-18T09:21:40;13.60;99.90
2024;DHT22;1016;48.770;9.154;2023-02-18T09:24:06;13.60;99.90
2024;DHT22;1016;48.770;9.154;2023-02-18T09:26:31;13.70;99.90
2024;DHT22;1016;48.770;9.154;2023-02-18T09:28:57;13.80;99.90
2024;DHT22;1016;48.770;9.154;2023-02-18T09:31:24;13.80;99.90
2024;DHT22;1016;48.770;9.154;2023-02-18T09:34:01;13.90;99.90
2024;DHT22;1016;48.770;9.154;2023-02-18T09:36:27;13.90;99.90
2024;DHT22;1016;48.770;9.154;2023-02-18T09:38:53;13.90;99.90
2024;DHT22;1016;48.770;9.154;2023-02-18T09:41:41;13.90;99.90
2024;DHT22;1016;48.770;9.154;2023-02-18T09:44:24;14.00;99.90
2024;DHT22;1016;48.770;9.154;2023-02-18T09:46:56;13.90;99.90
2024;DHT22;1016;48.770;9.154;2023-02-18T09:49:30;13.90;99.90
2024;DHT22;1016;48.770;9.154;2023-02-18T09:54:36;14.10;99.90
2024;DHT22;1016;48.770;9.154;2023-02-18T09:57:02;14.10;99.90
2024;DHT22;1016;48.770;9.154;2023-02-18T09:59:28;14.10;99.90
2024;DHT22;1016;48.770;9.154;2023-02-18T10:01:55;14.20;99.90
2024;DHT22;1016;48.770;9.154;2023-02-18T10:04:26;14.20;99.90
2024;DHT22;1016;48.770;9.154;2023-02-18T10:06:52;14.20;99.90
2024;DHT22;1016;48.770;9.154;2023-02-18T10:09:54;14.20;99.90
2024;DHT22;1016;48.770;9.154;2023-02-18T10:12:14;14.20;99.90
2024;DHT22;1016;48.770;9.154;2023-02-18T10:14:41;14.20;99.90
2024;DHT22;1016;48.770;9.154;2023-02-18T10:17:08;14.30;99.90
2024;DHT22;1016;48.770;9.154;2023-02-18T10:19:37;14.30;99.90
2024;DHT22;1016;48.770;9.154;2023-02-18T10:22:06;14.40;99.90
2024;DHT22;1016;48.770;9.154;2023-02-18T10:27:16;14.30;99.90
2024;DHT22;1016;48.770;9.154;2023-02-18T10:29:43;14.30;99.90
2024;DHT22;1016;48.770;9.154;2023-02-18T10:32:23;14.40;99.90
2024;DHT22;1016;48.770;9.154;2023-02-18T10:35:37;14.40;99.90
2024;DHT22;1016;48.770;9.154;2023-02-18T10:37:51;14.40;99.90
2024;DHT22;1016;48.770;9.154;2023-02-18T10:40:34;14.50;99.90
2024;DHT22;1016;48.770;9.154;2023-02-18T10:50:47;14.60;99.90
2024;DHT22;1016;48.770;9.154;2023-02-18T10:55:43;14.60;99.90
2024;DHT22;1016;48.770;9.154;2023-02-18T10:58:32;14.60;99.90
2024;DHT22;1016;48.770;9.154;2023-02-18T11:01:34;14.60;99.90
2024;DHT22;1016;48.770;9.154;2023-02-18T11:04:07;14.60;99.90
2024;DHT22;1016;48.770;9.154;2023-02-18T11:06:45;14.70;99.90
2024;DHT22;1016;48.770;9.154;2023-02-18T11:09:25;14.70;99.90
2024;DHT22;1016;48.770;9.154;2023-02-18T11:11:59;14.80;99.90
2024;DHT22;1016;48.770;9.154;2023-02-18T11:14:47;14.70;99.90
2024;DHT22;1016;48.770;9.154;2023-02-18T11:17:29;14.90;99.90
2024;DHT22;1016;48.770;9.154;2023-02-18T11:19:56;14.80;99.90
2024;DHT22;1016;48.770;9.154;2023-02-18T11:22:32;14.80;99.90
2024;DHT22;1016;48.770;9.154;2023-02-18T11:25:01;14.70;99.90
2024;DHT22;1016;48.770;9.154;2023-02-18T11:27:43;15.00;99.90
2024;DHT22;1016;48.770;9.154;2023-02-18T11:32:43;15.00;99.90
2024;DHT22;1016;48.770;9.154;2023-02-18T11:35:18;15.00;99.90
2024;DHT22;1016;48.770;9.154;2023-02-18T11:37:44;15.00;99.90
2024;DHT22;1016;48.770;9.154;2023-02-18T11:40:30;15.00;99.90
2024;DHT22;1016;48.770;9.154;2023-02-18T11:43:14;15.00;99.90
2024;DHT22;1016;48.770;9.154;2023-02-18T11:45:40;14.00;99.90
2024;DHT22;1016;48.770;9.154;2023-02-18T11:48:13;15.20;99.90
2024;DHT22;1016;48.770;9.154;2023-02-18T11:50:39;15.10;99.90
2024;DHT22;1016;48.770;9.154;2023-02-18T11:55:55;15.20;99.90
2024;DHT22;1016;48.770;9.154;2023-02-18T11:58:21;15.20;99.90
2024;DHT22;1016;48.770;9.154;2023-02-18T12:00:48;15.20;99.90
2024;DHT22;1016;48.770;9.154;2023-02-18T12:05:58;15.30;99.90
2024;DHT22;1016;48.770;9.154;2023-02-18T12:08:27;15.30;99.90
2024;DHT22;1016;48.770;9.154;2023-02-18T12:11:06;15.40;99.90
2024;DHT22;1016;48.770;9.154;2023-02-18T12:13:55;15.40;99.90
2024;DHT22;1016;48.770;9.154;2023-02-18T12:22:19;15.40;99.90
2024;DHT22;1016;48.770;9.154;2023-02-18T12:27:46;15.40;99.90
2024;DHT22;1016;48.770;9.154;2023-02-18T12:30:27;15.50;99.90
2024;DHT22;1016;48.770;9.154;2023-02-18T12:33:27;15.60;99.90
2024;DHT22;1016;48.770;9.154;2023-02-18T12:36:40;15.80;99.90
2024;DHT22;1016;48.770;9.154;2023-02-18T12:44:55;15.70;99.90
2024;DHT22;1016;48.770;9.154;2023-02-18T13:09:38;15.90;99.90
2024;DHT22;1016;48.770;9.154;2023-02-18T13:12:40;15.80;99.90
2024;DHT22;1016;48.770;9.154;2023-02-18T13:15:24;15.70;99.90
2024;DHT22;1016;48.770;9.154;2023-02-18T13:17:57;15.60;99.90
2024;DHT22;1016;48.770;9.154;2023-02-18T13:22:53;15.40;99.90
2024;DHT22;1016;48.770;9.154;2023-02-18T13:25:20;15.20;99.90
2024;DHT22;1016;48.770;9.154;2023-02-18T13:28:14;15.20;99.90
2024;DHT22;1016;48.770;9.154;2023-02-18T13:30:49;15.10;99.90
2024;DHT22;1016;48.770;9.154;2023-02-18T13:33:39;15.00;99.90
2024;DHT22;1016;48.770;9.154;2023-02-18T13:36:39;15.10;99.90
2024;DHT22;1016;48.770;9.154;2023-02-18T13:39:15;15.00;99.90
2024;DHT22;1016;48.770;9.154;2023-02-18T13:41:45;14.90;99.90
2024;DHT22;1016;48.770;9.154;2023-02-18T13:46:48;15.10;99.90
2024;DHT22;1016;48.770;9.154;2023-02-18T13:49:19;15.60;99.90
2024;DHT22;1016;48.770;9.154;2023-02-18T13:51:48;16.10;99.90
2024;DHT22;1016;48.770;9.154;2023-02-18T13:54:26;16.00;99.90
2024;DHT22;1016;48.770;9.154;2023-02-18T13:56:59;15.90;99.90
2024;DHT22;1016;48.770;9.154;2023-02-18T13:59:42;16.00;99.90
2024;DHT22;1016;48.770;9.154;2023-02-18T14:04:52;16.40;99.90
2024;DHT22;1016;48.770;9.154;2023-02-18T14:26:07;16.20;99.90
2024;DHT22;1016;48.770;9.154;2023-02-18T14:33:38;16.20;99.90
2024;DHT22;1016;48.770;9.154;2023-02-18T14:50:00;15.70;99.90
2024;DHT22;1016;48.770;9.154;2023-02-18T14:52:31;15.50;99.90
2024;DHT22;1016;48.770;9.154;2023-02-18T14:55:00;15.60;99.90
2024;DHT22;1016;48.770;9.154;2023-02-18T14:57:50;15.40;99.90
2024;DHT22;1016;48.770;9.154;2023-02-18T15:00:26;15.40;99.90
2024;DHT22;1016;48.770;9.154;2023-02-18T15:02:58;15.40;99.90
2024;DHT22;1016;48.770;9.154;2023-02-18T15:05:30;15.30;99.90
2024;DHT22;1016;48.770;9.154;2023-02-18T15:08:00;15.30;99.90
2024;DHT22;1016;48.770;9.154;2023-02-18T15:10:49;15.10;99.90
2024;DHT22;1016;48.770;9.154;2023-02-18T15:13:20;15.20;99.90
2024;DHT22;1016;48.770;9.154;2023-02-18T15:15:50;15.20;99.90
2024;DHT22;1016;48.770;9.154;2023-02-18T15:18:32;15.20;99.90
2024;DHT22;1016;48.770;9.154;2023-02-18T15:21:00;15.20;99.90
2024;DHT22;1016;48.770;9.154;2023-02-18T15:23:26;15.10;99.90
2024;DHT22;1016;48.770;9.154;2023-02-18T15:25:53;15.00;99.90
2024;DHT22;1016;48.770;9.154;2023-02-18T15:28:28;15.00;99.90
2024;DHT22;1016;48.770;9.154;2023-02-18T15:30:56;15.00;99.90
2024;DHT22;1016;48.770;9.154;2023-02-18T15:33:21;15.00;99.90
2024;DHT22;1016;48.770;9.154;2023-02-18T15:35:47;15.00;99.90
2024;DHT22;1016;48.770;9.154;2023-02-18T15:38:18;14.90;99.90
2024;DHT22;1016;48.770;9.154;2023-02-18T15:40:48;14.90;99.90
2024;DHT22;1016;48.770;9.154;2023-02-18T15:43:18;14.90;99.90
2024;DHT22;1016;48.770;9.154;2023-02-18T15:45:46;14.80;99.90
2024;DHT22;1016;48.770;9.154;2023-02-18T15:48:45;14.80;99.90
2024;DHT22;1016;48.770;9.154;2023-02-18T15:51:13;14.70;99.90
2024;DHT22;1016;48.770;9.154;2023-02-18T15:53:41;14.80;99.90
2024;DHT22;1016;48.770;9.154;2023-02-18T15:56:09;14.70;99.90
2024;DHT22;1016;48.770;9.154;2023-02-18T15:58:35;14.70;99.90
2024;DHT22;1016;48.770;9.154;2023-02-18T16:01:04;14.60;99.90
2024;DHT22;1016;48.770;9.154;2023-02-18T16:08:36;14.60;99.90
2024;DHT22;1016;48.770;9.154;2023-02-18T16:11:06;14.50;99.90
2024;DHT22;1016;48.770;9.154;2023-02-18T16:13:34;14.60;99.90
2024;DHT22;1016;48.770;9.154;2023-02-18T16:16:00;14.70;99.90
2024;DHT22;1016;48.770;9.154;2023-02-18T16:18:38;14.60;99.90
2024;DHT22;1016;48.770;9.154;2023-02-18T16:21:06;14.60;99.90
2024;DHT22;1016;48.770;9.154;2023-02-18T16:23:54;14.50;99.90
2024;DHT22;1016;48.770;9.154;2023-02-18T16:29:39;14.50;99.90
2024;DHT22;1016;48.770;9.154;2023-02-18T16:32:04;14.40;99.90
2024;DHT22;1016;48.770;9.154;2023-02-18T16:34:30;14.40;99.90
2024;DHT22;1016;48.770;9.154;2023-02-18T16:36:56;14.30;99.90
2024;DHT22;1016;48.770;9.154;2023-02-18T16:39:40;14.30;99.90
2024;DHT22;1016;48.770;9.154;2023-02-18T16:42:10;14.30;99.90
2024;DHT22;1016;48.770;9.154;2023-02-18T16:44:36;14.30;99.90
2024;DHT22;1016;48.770;9.154;2023-02-18T16:47:02;14.30;99.90
2024;DHT22;1016;48.770;9.154;2023-02-18T16:49:28;14.20;99.90
2024;DHT22;1016;48.770;9.154;2023-02-18T16:51:54;14.20;99.90
2024;DHT22;1016;48.770;9.154;2023-02-18T16:54:19;14.10;99.90
2024;DHT22;1016;48.770;9.154;2023-02-18T16:56:45;14.10;99.90
2024;DHT22;1016;48.770;9.154;2023-02-18T16:59:10;14.10;99.90
2024;DHT22;1016;48.770;9.154;2023-02-18T17:01:39;14.00;99.90
2024;DHT22;1016;48.770;9.154;2023-02-18T17:04:10;14.10;99.90
2024;DHT22;1016;48.770;9.154;2023-02-18T17:06:36;14.20;99.90
2024;DHT22;1016;48.770;9.154;2023-02-18T17:09:15;14.10;99.90
2024;DHT22;1016;48.770;9.154;2023-02-18T17:11:44;14.10;99.90
2024;DHT22;1016;48.770;9.154;2023-02-18T17:14:13;14.00;99.90
2024;DHT22;1016;48.770;9.154;2023-02-18T17:16:39;14.10;99.90
2024;DHT22;1016;48.770;9.154;2023-02-18T17:19:05;14.20;99.90
2024;DHT22;1016;48.770;9.154;2023-02-18T17:21:30;14.10;99.90
2024;DHT22;1016;48.770;9.154;2023-02-18T17:23:56;14.10;99.90
2024;DHT22;1016;48.770;9.154;2023-02-18T17:26:25;14.00;99.90
2024;DHT22;1016;48.770;9.154;2023-02-18T17:28:51;14.10;99.90
2024;DHT22;1016;48.770;9.154;2023-02-18T17:31:20;14.10;99.90
2024;DHT22;1016;48.770;9.154;2023-02-18T17:33:48;14.10;99.90
2024;DHT22;1016;48.770;9.154;2023-02-18T17:36:15;14.10;99.90
2024;DHT22;1016;48.770;9.154;2023-02-18T17:38:40;14.20;99.90
2024;DHT22;1016;48.770;9.154;2023-02-18T17:41:06;14.20;99.90
2024;DHT22;1016;48.770;9.154;2023-02-18T17:43:32;14.00;99.90
2024;DHT22;1016;48.770;9.154;2023-02-18T17:45:58;14.10;99.90
2024;DHT22;1016;48.770;9.154;2023-02-18T17:48:25;14.00;99.90
2024;DHT22;1016;48.770;9.154;2023-02-18T17:50:51;14.00;99.90
2024;DHT22;1016;48.770;9.154;2023-02-18T17:53:17;13.90;99.90
2024;DHT22;1016;48.770;9.154;2023-02-18T17:55:44;13.90;99.90
2024;DHT22;1016;48.770;9.154;2023-02-18T17:58:10;14.00;99.90
2024;DHT22;1016;48.770;9.154;2023-02-18T18:00:42;14.00;99.90
2024;DHT22;1016;48.770;9.154;2023-02-18T18:03:10;13.90;99.90
2024;DHT22;1016;48.770;9.154;2023-02-18T18:05:39;13.90;99.90
2024;DHT22;1016;48.770;9.154;2023-02-18T18:08:06;13.80;99.90
2024;DHT22;1016;48.770;9.154;2023-02-18T18:10:38;13.90;99.90
2024;DHT22;1016;48.770;9.154;2023-02-18T18:13:07;13.90;99.90
2024;DHT22;1016;48.770;9.154;2023-02-18T18:15:37;13.90;99.90
2024;DHT22;1016;48.770;9.154;2023-02-18T18:18:03;13.80;99.90
2024;DHT22;1016;48.770;9.154;2023-02-18T18:20:30;13.80;99.90
2024;DHT22;1016;48.770;9.154;2023-02-18T18:23:00;13.80;99.90
2024;DHT22;1016;48.770;9.154;2023-02-18T18:26:14;13.80;99.90
2024;DHT22;1016;48.770;9.154;2023-02-18T18:28:21;13.70;99.90
2024;DHT22;1016;48.770;9.154;2023-02-18T18:30:49;13.80;99.90
2024;DHT22;1016;48.770;9.154;2023-02-18T18:33:21;13.80;99.90
2024;DHT22;1016;48.770;9.154;2023-02-18T18:35:49;13.80;99.90
2024;DHT22;1016;48.770;9.154;2023-02-18T18:38:17;13.70;99.90
2024;DHT22;1016;48.770;9.154;2023-02-18T18:40:44;13.70;99.90
2024;DHT22;1016;48.770;9.154;2023-02-18T18:43:20;13.80;99.90